Terminal Aerodrome Forecast
Issued by NWS

Home | Current Version | Previous Version | Text Only | Print | Product List | Glossary On
Versions: 1 2 3 4 5 6 7 8 9 10 11 12
000
FTUS45 KRIW 270525
TAFWRL
TAF
KWRL 270525Z 2706/2806 14009KT P6SM VCSH SCT080 BKN110
     FM271000 VRB05KT P6SM SCT120
     FM272300 36009KT P6SM VCTS SCT070CB BKN100
     FM280400 15007KT P6SM VCSH BKN100=

USA.gov is the U.S. government's official web portal to all federal, state and local government web resources and services.